createdAt,value
2018-04-28T00:02:15.584Z,21.40
2018-04-28T00:04:44.240Z,21.40
2018-04-28T00:07:12.522Z,21.40
2018-04-28T00:09:40.828Z,21.30
2018-04-28T00:12:09.483Z,21.30
2018-04-28T00:14:37.745Z,21.30
2018-04-28T00:17:06.040Z,21.30
2018-04-28T00:19:35.944Z,21.30
2018-04-28T00:25:00.057Z,21.30
2018-04-28T00:27:28.368Z,21.20
2018-04-28T00:30:02.317Z,21.20
2018-04-28T00:32:30.625Z,21.20
2018-04-28T00:35:00.949Z,21.20
2018-04-28T00:40:29.128Z,21.20
2018-04-28T00:42:57.419Z,21.10
2018-04-28T00:45:30.903Z,21.10
2018-04-28T00:47:59.600Z,21.10
2018-04-28T00:50:30.883Z,21.10
2018-04-28T00:52:59.152Z,21.10
2018-04-28T00:55:29.304Z,21.10
2018-04-28T01:01:07.742Z,21.10
2018-04-28T01:03:37.825Z,21.00
2018-04-28T01:06:06.096Z,21.00
2018-04-28T01:08:34.360Z,21.00
2018-04-28T01:11:21.189Z,21.00
2018-04-28T01:16:44.968Z,20.90
2018-04-28T01:19:13.233Z,20.90
2018-04-28T01:21:42.813Z,20.90
2018-04-28T01:24:20.564Z,20.90
2018-04-28T01:29:58.961Z,20.90
2018-04-28T01:32:27.181Z,20.80
2018-04-28T01:35:08.893Z,20.80
2018-04-28T01:37:41.789Z,20.80
2018-04-28T01:40:12.222Z,20.80
2018-04-28T01:42:52.779Z,20.80
2018-04-28T01:45:24.943Z,20.80
2018-04-28T01:48:04.983Z,20.70
2018-04-28T01:53:39.752Z,20.70
2018-04-28T01:56:26.700Z,20.70
2018-04-28T01:59:07.121Z,20.70
2018-04-28T02:01:37.920Z,20.70
2018-04-28T02:04:19.090Z,20.60
2018-04-28T02:07:04.060Z,20.60
2018-04-28T02:09:57.821Z,20.60
2018-04-28T02:12:28.776Z,20.60
2018-04-28T02:14:57.897Z,20.60
2018-04-28T02:17:44.026Z,20.50
2018-04-28T02:20:29.821Z,20.50
2018-04-28T02:23:09.270Z,20.50
2018-04-28T02:25:43.932Z,20.50
2018-04-28T02:28:20.800Z,20.50
2018-04-28T02:30:55.903Z,20.50
2018-04-28T02:33:29.441Z,20.50
2018-04-28T02:35:58.681Z,20.40
2018-04-28T02:38:43.848Z,20.40
2018-04-28T02:41:27.564Z,20.40
2018-04-28T02:43:56.612Z,20.40
2018-04-28T02:46:24.907Z,20.40
2018-04-28T02:51:57.595Z,20.40
2018-04-28T02:54:27.203Z,20.30
2018-04-28T02:57:11.304Z,20.30
2018-04-28T02:59:47.417Z,20.40
2018-04-28T03:02:21.621Z,20.30
2018-04-28T03:05:13.537Z,20.30
2018-04-28T03:07:53.674Z,20.30
2018-04-28T03:10:25.753Z,20.30
2018-04-28T03:12:54.421Z,20.20
2018-04-28T03:15:22.698Z,20.20
2018-04-28T03:17:57.150Z,20.20
2018-04-28T03:20:26.119Z,20.20
2018-04-28T03:22:57.324Z,20.20
2018-04-28T03:28:30.349Z,20.20
2018-04-28T03:34:15.057Z,20.20
2018-04-28T03:39:45.172Z,20.10
2018-04-28T03:42:14.906Z,20.10
2018-04-28T03:44:53.092Z,20.10
2018-04-28T03:47:41.188Z,20.10
2018-04-28T03:53:07.000Z,20.10
2018-04-28T03:55:36.667Z,20.10
2018-04-28T03:58:16.823Z,20.10
2018-04-28T04:00:57.040Z,20.10
2018-04-28T04:03:25.569Z,20.10
2018-04-28T04:06:15.641Z,20.10
2018-04-28T04:08:54.720Z,20.10
2018-04-28T04:14:38.556Z,20.10
2018-04-28T04:20:15.215Z,20.10
2018-04-28T04:22:55.247Z,20.10
2018-04-28T04:25:27.515Z,20.10
2018-04-28T04:28:06.828Z,20.10
2018-04-28T04:33:49.714Z,20.10
2018-04-28T04:36:29.855Z,20.10
2018-04-28T04:39:00.533Z,20.10
2018-04-28T04:41:43.386Z,20.10
2018-04-28T04:44:38.353Z,20.10
2018-04-28T04:47:12.165Z,20.10
2018-04-28T04:49:52.669Z,20.10
2018-04-28T04:52:33.785Z,20.10
2018-04-28T04:55:09.866Z,20.20
2018-04-28T04:57:42.924Z,20.20
2018-04-28T05:03:18.692Z,20.20
2018-04-28T05:05:51.373Z,20.20
2018-04-28T05:08:31.909Z,20.20
2018-04-28T05:11:11.949Z,20.30
2018-04-28T05:13:41.117Z,20.30
2018-04-28T05:16:21.365Z,20.40
2018-04-28T05:22:12.061Z,20.40
2018-04-28T05:24:52.073Z,20.40
2018-04-28T05:27:22.901Z,20.40
2018-04-28T05:29:55.199Z,20.40
2018-04-28T05:32:30.048Z,20.40
2018-04-28T05:38:26.925Z,20.50
2018-04-28T05:41:09.269Z,20.50
2018-04-28T05:43:51.173Z,20.50
2018-04-28T05:49:32.277Z,20.60
2018-04-28T05:52:22.220Z,20.60
2018-04-28T05:54:58.591Z,20.60
2018-04-28T05:57:38.876Z,20.60
2018-04-28T06:00:16.850Z,20.60
2018-04-28T06:02:48.757Z,20.70
2018-04-28T06:05:19.827Z,20.70
2018-04-28T06:07:53.764Z,20.70
2018-04-28T06:13:38.737Z,20.80
2018-04-28T06:16:17.936Z,20.80
2018-04-28T06:18:49.078Z,20.90
2018-04-28T06:21:17.365Z,20.90
2018-04-28T06:23:45.634Z,20.90
2018-04-28T06:26:14.351Z,21.00
2018-04-28T06:28:42.661Z,21.00
2018-04-28T06:31:11.350Z,21.10
2018-04-28T06:33:39.710Z,21.10
2018-04-28T06:36:08.375Z,21.20
2018-04-28T06:38:36.636Z,21.20
2018-04-28T06:41:04.945Z,21.30
2018-04-28T06:43:33.636Z,21.40
2018-04-28T06:46:02.300Z,21.40
2018-04-28T06:48:30.623Z,21.40
2018-04-28T06:50:58.976Z,21.40
2018-04-28T06:53:27.433Z,21.50
2018-04-28T06:55:55.926Z,21.50
2018-04-28T06:58:24.911Z,21.60
2018-04-28T07:00:53.745Z,21.60
2018-04-28T07:03:22.280Z,21.60
2018-04-28T07:05:50.589Z,21.70
2018-04-28T07:08:18.867Z,21.80
2018-04-28T07:10:47.738Z,21.90
2018-04-28T07:13:15.951Z,21.90
2018-04-28T07:15:44.249Z,22.00
2018-04-28T07:18:12.570Z,22.10
2018-04-28T07:20:41.402Z,22.30
2018-04-28T07:23:09.677Z,22.30
2018-04-28T07:25:38.080Z,22.50
2018-04-28T07:28:06.341Z,22.60
2018-04-28T07:30:34.617Z,22.70
2018-04-28T07:33:02.925Z,22.90
2018-04-28T07:35:31.218Z,23.10
2018-04-28T07:37:59.881Z,23.30
2018-04-28T07:40:28.227Z,23.40
2018-04-28T07:42:56.505Z,23.50
2018-04-28T07:45:24.782Z,23.70
2018-04-28T07:47:53.109Z,24.00
2018-04-28T07:50:21.848Z,24.50
2018-04-28T07:52:50.125Z,24.50
2018-04-28T07:55:18.422Z,24.70
2018-04-28T07:57:46.709Z,24.90
2018-04-28T08:00:15.083Z,25.10
2018-04-28T08:02:43.387Z,25.30
2018-04-28T08:05:11.713Z,25.60
2018-04-28T08:07:39.993Z,25.90
2018-04-28T08:10:08.369Z,26.10
2018-04-28T08:12:36.965Z,26.30
2018-04-28T08:15:05.244Z,26.40
2018-04-28T08:17:33.553Z,26.60
2018-04-28T08:20:02.523Z,27.00
2018-04-28T08:22:31.273Z,27.10
2018-04-28T08:24:59.507Z,27.10
2018-04-28T08:27:28.405Z,27.40
2018-04-28T08:29:57.083Z,27.60
2018-04-28T08:32:25.834Z,27.70
2018-04-28T08:34:54.125Z,27.70
2018-04-28T08:37:22.722Z,27.80
2018-04-28T08:39:51.027Z,28.00
2018-04-28T08:42:19.307Z,28.20
2018-04-28T08:44:47.577Z,28.40
2018-04-28T08:47:15.871Z,28.60
2018-04-28T08:49:44.277Z,28.80
2018-04-28T08:52:12.545Z,28.90
2018-04-28T08:54:41.153Z,29.10
2018-04-28T08:57:09.452Z,29.20
2018-04-28T09:02:41.864Z,29.40
2018-04-28T09:05:10.222Z,29.40
2018-04-28T09:07:38.512Z,29.50
2018-04-28T09:10:06.863Z,29.60
2018-04-28T09:12:35.128Z,29.60
2018-04-28T09:15:03.418Z,29.60
2018-04-28T09:17:31.731Z,29.60
2018-04-28T09:20:00.064Z,29.70
2018-04-28T09:22:29.057Z,29.80
2018-04-28T09:24:57.417Z,29.90
2018-04-28T09:27:25.714Z,29.90
2018-04-28T09:29:54.406Z,30.10
2018-04-28T09:32:22.686Z,30.10
2018-04-28T09:34:50.991Z,30.20
2018-04-28T09:37:19.276Z,30.20
2018-04-28T09:39:47.548Z,30.30
2018-04-28T09:42:16.084Z,30.40
2018-04-28T09:44:44.391Z,30.40
2018-04-28T09:47:12.672Z,30.60
2018-04-28T09:49:41.024Z,30.70
2018-04-28T09:52:09.710Z,30.80
2018-04-28T09:54:38.060Z,30.90
2018-04-28T09:57:06.682Z,31.00
2018-04-28T09:59:34.977Z,31.10
2018-04-28T10:02:09.036Z,31.20
2018-04-28T10:04:37.843Z,31.30
2018-04-28T10:07:06.121Z,31.30
2018-04-28T10:09:34.419Z,31.20
2018-04-28T10:12:03.905Z,31.30
2018-04-28T10:14:32.183Z,31.30
2018-04-28T10:17:01.165Z,31.50
2018-04-28T10:19:29.600Z,31.50
2018-04-28T10:21:58.226Z,31.60
2018-04-28T10:24:26.558Z,31.80
2018-04-28T10:26:54.840Z,31.90
2018-04-28T10:29:23.281Z,32.10
2018-04-28T10:31:52.045Z,32.40
2018-04-28T10:34:20.308Z,32.40
2018-04-28T10:36:48.791Z,32.50
2018-04-28T10:39:17.200Z,32.60
2018-04-28T10:41:45.891Z,32.90
2018-04-28T10:44:14.387Z,32.90
2018-04-28T10:46:43.021Z,33.00
2018-04-28T10:49:11.456Z,33.10
2018-04-28T10:51:39.791Z,33.20
2018-04-28T10:54:08.146Z,33.30
2018-04-28T10:56:36.437Z,33.40
2018-04-28T10:59:04.778Z,33.50
2018-04-28T11:01:33.112Z,33.60
2018-04-28T11:04:01.466Z,33.60
2018-04-28T11:06:29.729Z,33.60
2018-04-28T11:08:58.047Z,33.70
2018-04-28T11:11:26.396Z,33.80
2018-04-28T11:13:54.697Z,33.80
2018-04-28T11:16:22.960Z,33.80
2018-04-28T11:18:51.241Z,33.80
2018-04-28T11:21:19.788Z,33.90
2018-04-28T11:23:48.062Z,33.90
2018-04-28T11:26:16.351Z,33.90
2018-04-28T11:28:44.704Z,33.90
2018-04-28T11:31:13.351Z,34.00
2018-04-28T11:33:41.658Z,33.90
2018-04-28T11:36:10.001Z,33.90
2018-04-28T11:38:38.371Z,33.80
2018-04-28T11:41:07.067Z,33.60
2018-04-28T11:43:35.398Z,33.40
2018-04-28T11:46:03.640Z,33.10
2018-04-28T11:48:32.481Z,33.20
2018-04-28T11:51:01.220Z,33.20
2018-04-28T11:53:30.378Z,33.30
2018-04-28T11:55:59.685Z,33.10
2018-04-28T11:58:28.840Z,33.10
2018-04-28T12:01:02.332Z,32.90
2018-04-28T12:03:32.926Z,32.80
2018-04-28T12:06:02.056Z,32.70
2018-04-28T12:08:30.996Z,32.70
2018-04-28T12:11:00.177Z,32.70
2018-04-28T12:13:28.478Z,32.60
2018-04-28T12:15:56.758Z,32.50
2018-04-28T12:18:25.623Z,32.40
2018-04-28T12:20:54.569Z,32.30
2018-04-28T12:23:24.255Z,32.10
2018-04-28T12:25:53.888Z,31.90
2018-04-28T12:28:26.066Z,31.70
2018-04-28T12:30:58.333Z,31.60
2018-04-28T12:33:27.471Z,31.50
2018-04-28T12:35:56.962Z,31.50
2018-04-28T12:38:30.751Z,31.50
2018-04-28T12:40:59.648Z,31.50
2018-04-28T12:43:27.974Z,31.70
2018-04-28T12:45:56.638Z,31.80
2018-04-28T12:48:24.948Z,32.10
2018-04-28T12:50:53.663Z,32.50
2018-04-28T12:53:27.220Z,32.60
2018-04-28T12:55:56.141Z,32.80
2018-04-28T12:58:25.544Z,33.00
2018-04-28T13:00:54.183Z,33.10
2018-04-28T13:03:22.496Z,33.30
2018-04-28T13:05:50.837Z,33.40
2018-04-28T13:08:19.111Z,33.50
2018-04-28T13:10:47.575Z,33.50
2018-04-28T13:13:15.879Z,33.60
2018-04-28T13:15:44.160Z,33.70
2018-04-28T13:18:12.869Z,33.80
2018-04-28T13:20:41.581Z,33.80
2018-04-28T13:23:09.871Z,33.80
2018-04-28T13:25:38.155Z,33.80
2018-04-28T13:28:06.491Z,33.90
2018-04-28T13:30:34.777Z,33.90
2018-04-28T13:33:03.058Z,33.90
2018-04-28T13:35:31.680Z,34.00
2018-04-28T13:37:59.959Z,34.00
2018-04-28T13:40:28.240Z,34.10
2018-04-28T13:42:56.565Z,34.10
2018-04-28T13:45:24.850Z,34.10
2018-04-28T13:47:53.156Z,34.10
2018-04-28T13:50:21.462Z,34.10
2018-04-28T13:52:50.128Z,34.10
2018-04-28T13:55:18.433Z,34.10
2018-04-28T13:57:47.165Z,34.00
2018-04-28T14:00:15.450Z,34.00
2018-04-28T14:02:43.749Z,34.00
2018-04-28T14:05:12.482Z,33.90
2018-04-28T14:07:40.761Z,33.90
2018-04-28T14:10:09.029Z,33.90
2018-04-28T14:12:37.494Z,33.90
2018-04-28T14:15:06.453Z,33.70
2018-04-28T14:17:34.725Z,33.70
2018-04-28T14:20:03.063Z,33.60
2018-04-28T14:22:31.999Z,33.60
2018-04-28T14:25:00.350Z,33.50
2018-04-28T14:27:28.661Z,33.50
2018-04-28T14:29:56.952Z,33.40
2018-04-28T14:32:25.257Z,33.40
2018-04-28T14:34:53.558Z,33.30
2018-04-28T14:37:21.843Z,33.20
2018-04-28T14:39:50.465Z,33.10
2018-04-28T14:42:19.201Z,33.00
2018-04-28T14:44:47.487Z,33.00
2018-04-28T14:47:15.768Z,32.90
2018-04-28T14:49:44.161Z,32.80
2018-04-28T14:52:12.441Z,32.70
2018-04-28T14:54:40.807Z,32.60
2018-04-28T14:57:09.082Z,32.50
2018-04-28T14:59:37.578Z,32.40
2018-04-28T15:02:05.878Z,32.30
2018-04-28T15:04:34.533Z,32.20
2018-04-28T15:07:02.837Z,32.10
2018-04-28T15:09:31.563Z,32.00
2018-04-28T15:11:59.842Z,32.00
2018-04-28T15:14:28.181Z,31.90
2018-04-28T15:16:56.737Z,31.80
2018-04-28T15:19:25.044Z,31.70
2018-04-28T15:21:53.694Z,31.70
2018-04-28T15:24:21.982Z,31.60
2018-04-28T15:26:50.320Z,31.50
2018-04-28T15:29:18.629Z,31.40
2018-04-28T15:31:47.092Z,31.30
2018-04-28T15:34:15.595Z,31.20
2018-04-28T15:36:44.824Z,31.20
2018-04-28T15:39:13.117Z,31.10
2018-04-28T15:41:41.428Z,31.00
2018-04-28T15:44:10.127Z,30.90
2018-04-28T15:46:38.408Z,30.80
2018-04-28T15:49:07.220Z,30.80
2018-04-28T15:51:35.967Z,30.60
2018-04-28T15:54:04.253Z,30.60
2018-04-28T15:56:32.566Z,30.50
2018-04-28T15:59:00.899Z,30.40
2018-04-28T16:01:29.186Z,30.30
2018-04-28T16:03:57.490Z,30.30
2018-04-28T16:06:25.784Z,30.20
2018-04-28T16:08:54.061Z,30.10
2018-04-28T16:11:22.721Z,30.00
2018-04-28T16:13:51.035Z,29.90
2018-04-28T16:16:19.318Z,29.90
2018-04-28T16:18:48.037Z,29.80
2018-04-28T16:21:16.410Z,29.70
2018-04-28T16:23:44.794Z,29.70
2018-04-28T16:26:13.145Z,29.60
2018-04-28T16:28:41.661Z,29.50
2018-04-28T16:31:09.940Z,29.50
2018-04-28T16:33:38.278Z,29.40
2018-04-28T16:36:06.545Z,29.30
2018-04-28T16:38:34.822Z,29.20
2018-04-28T16:41:03.236Z,29.10
2018-04-28T16:43:31.517Z,29.00
2018-04-28T16:45:59.794Z,29.00
2018-04-28T16:48:28.142Z,28.90
2018-04-28T16:50:56.493Z,28.80
2018-04-28T16:53:24.797Z,28.70
2018-04-28T16:55:53.188Z,28.70
2018-04-28T16:58:21.500Z,28.60
2018-04-28T17:00:50.269Z,28.50
2018-04-28T17:03:18.581Z,28.50
2018-04-28T17:05:46.873Z,28.50
2018-04-28T17:08:15.154Z,28.40
2018-04-28T17:10:43.477Z,28.40
2018-04-28T17:13:12.057Z,28.30
2018-04-28T17:15:40.654Z,28.30
2018-04-28T17:18:08.958Z,28.20
2018-04-28T17:20:37.934Z,28.20
2018-04-28T17:23:06.242Z,28.10
2018-04-28T17:25:34.549Z,28.00
2018-04-28T17:28:02.833Z,28.00
2018-04-28T17:30:31.133Z,27.90
2018-04-28T17:32:59.441Z,27.90
2018-04-28T17:35:27.705Z,27.80
2018-04-28T17:37:56.381Z,27.70
2018-04-28T17:40:25.113Z,27.70
2018-04-28T17:42:53.431Z,27.70
2018-04-28T17:45:21.755Z,27.70
2018-04-28T17:47:50.068Z,27.60
2018-04-28T17:50:18.356Z,27.60
2018-04-28T17:52:46.634Z,27.50
2018-04-28T17:55:15.794Z,27.50
2018-04-28T17:57:44.093Z,27.40
2018-04-28T18:00:12.365Z,27.40
2018-04-28T18:02:40.855Z,27.30
2018-04-28T18:05:09.082Z,27.30
2018-04-28T18:07:37.364Z,27.30
2018-04-28T18:10:05.696Z,27.20
2018-04-28T18:12:33.985Z,27.20
2018-04-28T18:15:02.657Z,27.10
2018-04-28T18:17:31.081Z,27.10
2018-04-28T18:19:59.350Z,27.10
2018-04-28T18:22:28.508Z,27.00
2018-04-28T18:24:56.817Z,27.00
2018-04-28T18:27:25.080Z,26.90
2018-04-28T18:29:53.790Z,26.90
2018-04-28T18:32:22.740Z,26.90
2018-04-28T18:34:51.026Z,26.80
2018-04-28T18:37:19.339Z,26.80
2018-04-28T18:39:47.679Z,26.70
2018-04-28T18:42:16.358Z,26.70
2018-04-28T18:44:44.668Z,26.70
2018-04-28T18:47:13.048Z,26.70
2018-04-28T18:49:41.354Z,26.60
2018-04-28T18:52:09.661Z,26.60
2018-04-28T18:54:37.972Z,26.50
2018-04-28T18:57:06.293Z,26.50
2018-04-28T18:59:34.578Z,26.50
2018-04-28T19:02:02.921Z,26.50
2018-04-28T19:04:31.255Z,26.40
2018-04-28T19:06:59.982Z,26.40
2018-04-28T19:09:28.891Z,26.40
2018-04-28T19:11:57.194Z,26.30
2018-04-28T19:14:25.930Z,26.30
2018-04-28T19:16:54.282Z,26.30
2018-04-28T19:19:22.986Z,26.30
2018-04-28T19:21:51.292Z,26.30
2018-04-28T19:24:19.615Z,26.20
2018-04-28T19:26:47.929Z,26.20
2018-04-28T19:29:16.219Z,26.20
2018-04-28T19:31:45.396Z,26.20
2018-04-28T19:34:13.759Z,26.10
2018-04-28T19:36:42.442Z,26.10
2018-04-28T19:39:10.857Z,26.10
2018-04-28T19:41:39.164Z,26.10
2018-04-28T19:44:10.949Z,26.10
2018-04-28T19:46:39.271Z,26.00
2018-04-28T19:49:07.893Z,26.00
2018-04-28T19:51:36.228Z,26.00
2018-04-28T19:54:04.531Z,26.00
2018-04-28T19:56:33.138Z,26.00
2018-04-28T19:59:01.513Z,26.00
2018-04-28T20:01:30.247Z,25.90
2018-04-28T20:03:58.537Z,25.90
2018-04-28T20:06:26.865Z,26.00
2018-04-28T20:08:55.541Z,26.00
2018-04-28T20:11:23.834Z,26.00
2018-04-28T20:13:52.520Z,26.00
2018-04-28T20:16:20.930Z,26.00
2018-04-28T20:18:49.164Z,26.10
2018-04-28T20:21:17.579Z,26.10
2018-04-28T20:23:57.593Z,26.10
2018-04-28T20:26:26.327Z,26.10
2018-04-28T20:28:54.843Z,26.10
2018-04-28T20:31:23.177Z,26.10
2018-04-28T20:33:51.565Z,26.00
2018-04-28T20:36:19.926Z,26.00
2018-04-28T20:38:48.228Z,26.10
2018-04-28T20:41:16.573Z,26.00
2018-04-28T20:43:44.970Z,26.00
2018-04-28T20:46:13.292Z,25.90
2018-04-28T20:48:41.625Z,25.90
2018-04-28T20:51:09.904Z,25.90
2018-04-28T20:53:38.229Z,25.90
2018-04-28T20:56:07.026Z,25.80
2018-04-28T20:58:35.718Z,25.80
2018-04-28T21:01:04.640Z,25.80
2018-04-28T21:03:32.988Z,25.70
2018-04-28T21:06:01.413Z,25.70
2018-04-28T21:08:29.736Z,25.70
2018-04-28T21:10:58.559Z,25.70
2018-04-28T21:13:26.839Z,25.60
2018-04-28T21:15:55.146Z,25.60
2018-04-28T21:18:23.535Z,25.60
2018-04-28T21:20:51.843Z,25.60
2018-04-28T21:23:20.126Z,25.60
2018-04-28T21:25:48.441Z,25.60
2018-04-28T21:28:16.720Z,25.50
2018-04-28T21:30:45.449Z,25.50
2018-04-28T21:33:13.824Z,25.50
2018-04-28T21:35:42.098Z,25.50
2018-04-28T21:38:10.393Z,25.50
2018-04-28T21:40:38.730Z,25.50
2018-04-28T21:43:07.017Z,25.40
2018-04-28T21:45:35.342Z,25.40
2018-04-28T21:48:03.977Z,25.40
2018-04-28T21:50:32.290Z,25.40
2018-04-28T21:53:00.580Z,25.40
2018-04-28T21:55:29.017Z,25.30
2018-04-28T21:57:57.309Z,25.30
2018-04-28T22:00:25.651Z,25.30
2018-04-28T22:02:55.708Z,25.30
2018-04-28T22:05:24.214Z,25.30
2018-04-28T22:07:52.661Z,25.20
2018-04-28T22:10:21.203Z,25.20
2018-04-28T22:12:49.566Z,25.20
2018-04-28T22:15:17.839Z,25.20
2018-04-28T22:17:46.229Z,25.20
2018-04-28T22:20:14.511Z,25.20
2018-04-28T22:22:42.781Z,25.10
2018-04-28T22:25:11.137Z,25.10
2018-04-28T22:27:39.421Z,25.10
2018-04-28T22:30:07.685Z,25.10
2018-04-28T22:32:35.987Z,25.10
2018-04-28T22:35:04.256Z,25.10
2018-04-28T22:37:32.571Z,25.10
2018-04-28T22:40:00.934Z,25.00
2018-04-28T22:42:29.229Z,25.00
2018-04-28T22:44:57.515Z,25.00
2018-04-28T22:47:25.806Z,25.00
2018-04-28T22:49:54.494Z,25.00
2018-04-28T22:52:23.213Z,25.00
2018-04-28T22:54:51.871Z,24.90
2018-04-28T22:57:20.137Z,24.90
2018-04-28T22:59:49.116Z,24.90
2018-04-28T23:02:17.471Z,24.90
2018-04-28T23:04:45.731Z,24.90
2018-04-28T23:07:14.021Z,24.90
2018-04-28T23:09:42.293Z,24.90
2018-04-28T23:12:10.893Z,24.80
2018-04-28T23:14:39.178Z,24.80
2018-04-28T23:17:07.754Z,24.80
2018-04-28T23:19:36.020Z,24.80
2018-04-28T23:22:04.300Z,24.80
2018-04-28T23:24:32.601Z,24.80
2018-04-28T23:27:00.878Z,24.80
2018-04-28T23:29:29.828Z,24.70
2018-04-28T23:31:58.230Z,24.70
2018-04-28T23:34:27.233Z,24.70
2018-04-28T23:36:55.541Z,24.70
2018-04-28T23:39:23.844Z,24.70
2018-04-28T23:41:52.121Z,24.70
2018-04-28T23:44:20.396Z,24.70
2018-04-28T23:46:48.710Z,24.60
2018-04-28T23:49:16.997Z,24.60
2018-04-28T23:51:45.265Z,24.60
2018-04-28T23:54:13.568Z,24.60
2018-04-28T23:56:42.220Z,24.60
2018-04-28T23:59:10.493Z,24.60
